Time;durP1;ratioP1;P1;durP2;ratioP2;P2;SDS_P1;SDS_P2;PMS_P1;PMS_P2;Temp;Humidity;BMP_temperature;BMP_pressure;BME280_temperature;BME280_humidity;BME280_pressure;Samples;Min_cycle;Max_cycle;Signal;HPM_P1;HPM_P2
2024/04/01 00:04:56;;;;;;;;;;;8.80;68.60;;;;;;20914693;28;19956;-57
2024/04/01 00:14:57;;;;;;;;;;;8.70;69.10;;;;;;20913908;28;19925;-55
2024/04/01 00:24:59;;;;;;;;;;;8.70;69.10;;;;;;20913447;28;19932;-57
2024/04/01 00:35:00;;;;;;;;;;;8.70;69.20;;;;;;20912957;28;19920;-56
2024/04/01 00:45:02;;;;;;;;;;;8.70;69.40;;;;;;20912495;28;19925;-56
2024/04/01 00:55:04;;;;;;;;;;;8.70;69.30;;;;;;20913295;28;19921;-56
2024/04/01 01:05:06;;;;;;;;;;;8.60;69.30;;;;;;20913244;28;20285;-57
2024/04/01 01:15:11;;;;;;;;;;;8.50;69.50;;;;;;20912276;28;20286;-56
2024/04/01 01:25:12;;;;;;;;;;;8.60;69.50;;;;;;20912233;28;19917;-56
2024/04/01 01:35:14;;;;;;;;;;;8.50;69.90;;;;;;20911960;28;19956;-57
2024/04/01 01:45:16;;;;;;;;;;;8.40;70.00;;;;;;20911891;28;19975;-56
2024/04/01 01:55:17;;;;;;;;;;;8.30;70.20;;;;;;20926120;28;20381;-56
2024/04/01 02:05:18;;;;;;;;;;;8.20;70.20;;;;;;20925496;28;19931;-56
2024/04/01 02:15:19;;;;;;;;;;;8.20;70.40;;;;;;20923357;28;19932;-57
2024/04/01 02:25:20;;;;;;;;;;;8.20;70.60;;;;;;20923937;28;20323;-57
2024/04/01 02:35:22;;;;;;;;;;;8.20;70.40;;;;;;20921708;28;19948;-56
2024/04/01 02:45:23;;;;;;;;;;;8.30;70.20;;;;;;20921515;28;20283;-56
2024/04/01 02:55:25;;;;;;;;;;;8.30;70.30;;;;;;20919979;28;19955;-56
2024/04/01 03:05:27;;;;;;;;;;;8.40;70.00;;;;;;20918467;28;19909;-56
2024/04/01 03:15:28;;;;;;;;;;;8.40;69.90;;;;;;20919459;28;19917;-56
2024/04/01 03:25:29;;;;;;;;;;;8.40;69.70;;;;;;20917542;28;19990;-56
2024/04/01 03:35:30;;;;;;;;;;;8.50;70.20;;;;;;20916833;28;19917;-55
2024/04/01 03:45:31;;;;;;;;;;;8.40;69.90;;;;;;20879864;28;19921;-57
2024/04/01 03:55:32;;;;;;;;;;;8.50;70.30;;;;;;20832809;28;19932;-57
2024/04/01 04:05:35;;;;;;;;;;;8.40;70.70;;;;;;20832028;28;19916;-56
2024/04/01 04:15:37;;;;;;;;;;;8.40;70.50;;;;;;20831252;28;20011;-57
2024/04/01 04:25:38;;;;;;;;;;;8.50;70.90;;;;;;20832296;28;19909;-56
2024/04/01 04:35:39;;;;;;;;;;;8.50;70.80;;;;;;20830961;28;20000;-57
2024/04/01 04:45:48;;;;;;;;;;;8.60;70.80;;;;;;20830947;28;19921;-56
2024/04/01 04:55:49;;;;;;;;;;;8.50;70.70;;;;;;20829537;28;20012;-57
2024/04/01 05:05:50;;;;;;;;;;;8.40;71.10;;;;;;20830336;28;20278;-56
2024/04/01 05:15:51;;;;;;;;;;;8.40;71.50;;;;;;20828044;28;19917;-56
2024/04/01 05:25:52;;;;;;;;;;;8.30;71.40;;;;;;20839421;28;19944;-55
2024/04/01 05:35:53;;;;;;;;;;;8.30;71.40;;;;;;20843671;28;19960;-55
2024/04/01 05:45:54;;;;;;;;;;;8.40;71.70;;;;;;20879876;28;20266;-56
2024/04/01 05:55:55;;;;;;;;;;;8.40;72.00;;;;;;20924622;28;19920;-57
2024/04/01 06:05:57;;;;;;;;;;;8.50;72.70;;;;;;20925252;28;20365;-56
2024/04/01 06:15:58;;;;;;;;;;;8.40;74.10;;;;;;20924210;28;19917;-57
2024/04/01 06:25:59;;;;;;;;;;;8.50;74.70;;;;;;20922346;28;19908;-58
2024/04/01 06:36:01;;;;;;;;;;;8.50;74.50;;;;;;20921587;28;19962;-56
2024/04/01 06:46:02;;;;;;;;;;;8.70;74.70;;;;;;20921370;28;20373;-56
2024/04/01 06:56:03;;;;;;;;;;;8.60;75.10;;;;;;20919940;28;20422;-56
2024/04/01 07:06:04;;;;;;;;;;;8.70;74.90;;;;;;20918511;28;19940;-57
2024/04/01 07:16:05;;;;;;;;;;;9.00;75.00;;;;;;20917694;28;19917;-57
2024/04/01 07:26:07;;;;;;;;;;;9.00;75.40;;;;;;20918462;28;20034;-56
2024/04/01 07:36:08;;;;;;;;;;;9.10;75.40;;;;;;20916954;28;19917;-56
2024/04/01 07:46:09;;;;;;;;;;;9.10;75.80;;;;;;20916484;28;20326;-57
2024/04/01 07:56:10;;;;;;;;;;;9.20;76.40;;;;;;20915130;28;19921;-57
2024/04/01 08:06:11;;;;;;;;;;;9.20;76.80;;;;;;20915871;28;20370;-57
2024/04/01 08:16:12;;;;;;;;;;;9.20;76.80;;;;;;20915019;28;19917;-56
2024/04/01 08:26:13;;;;;;;;;;;9.20;76.00;;;;;;20914292;28;19919;-57
2024/04/01 08:36:15;;;;;;;;;;;9.30;75.60;;;;;;20913745;28;20324;-57
2024/04/01 08:46:16;;;;;;;;;;;9.40;74.90;;;;;;20913721;28;20328;-56
2024/04/01 08:56:19;;;;;;;;;;;9.50;74.80;;;;;;20915854;28;19924;-57
2024/04/01 09:06:20;;;;;;;;;;;9.70;74.60;;;;;;20929849;28;19931;-57
2024/04/01 09:16:27;;;;;;;;;;;9.70;74.60;;;;;;20927879;28;19917;-56
2024/04/01 09:26:29;;;;;;;;;;;9.90;75.30;;;;;;20926686;28;19945;-57
2024/04/01 09:36:32;;;;;;;;;;;10.20;74.70;;;;;;20927076;28;20320;-57
2024/04/01 09:46:33;;;;;;;;;;;10.50;73.20;;;;;;20924851;28;19932;-57
2024/04/01 09:56:44;;;;;;;;;;;10.70;72.50;;;;;;20925280;28;19916;-58
2024/04/01 10:06:59;;;;;;;;;;;10.70;72.00;;;;;;20924205;28;20302;-58
2024/04/01 10:17:18;;;;;;;;;;;11.20;70.80;;;;;;20922724;28;19919;-57
2024/04/01 10:27:24;;;;;;;;;;;11.10;67.70;;;;;;20923398;28;20337;-58
2024/04/01 10:37:25;;;;;;;;;;;11.30;67.80;;;;;;20922550;28;19912;-58
2024/04/01 10:47:30;;;;;;;;;;;11.70;66.20;;;;;;20921619;28;19978;-57
2024/04/01 10:57:32;;;;;;;;;;;12.00;62.30;;;;;;20919806;28;19917;-57
2024/04/01 11:07:52;;;;;;;;;;;11.70;67.30;;;;;;20919949;28;19921;-57
2024/04/01 11:17:56;;;;;;;;;;;11.90;66.80;;;;;;20918276;28;20389;-56
2024/04/01 11:28:04;;;;;;;;;;;12.10;64.10;;;;;;20917019;28;19956;-59
2024/04/01 11:38:24;;;;;;;;;;;12.40;60.50;;;;;;20916134;28;19916;-58
2024/04/01 11:48:26;;;;;;;;;;;12.60;59.70;;;;;;20915471;28;19921;-59
2024/04/01 11:58:27;;;;;;;;;;;12.70;59.10;;;;;;20916149;28;19947;-57
2024/04/01 12:08:28;;;;;;;;;;;13.00;58.70;;;;;;20914759;28;19952;-58
2024/04/01 12:18:29;;;;;;;;;;;13.20;57.90;;;;;;20913102;28;19916;-56
2024/04/01 12:28:33;;;;;;;;;;;13.50;58.00;;;;;;20913758;28;20288;-57
2024/04/01 12:38:41;;;;;;;;;;;13.60;55.60;;;;;;20912298;28;19932;-59
2024/04/01 12:48:42;;;;;;;;;;;13.70;55.40;;;;;;20912439;28;19920;-59
2024/04/01 12:58:58;;;;;;;;;;;13.80;53.40;;;;;;20913820;28;19982;-59
2024/04/01 13:09:03;;;;;;;;;;;13.90;51.20;;;;;;20913175;28;19973;-58
2024/04/01 13:19:20;;;;;;;;;;;13.90;52.90;;;;;;20910732;28;19947;-58
2024/04/01 13:29:42;;;;;;;;;;;14.00;52.50;;;;;;20910699;28;19917;-57
2024/04/01 13:39:55;;;;;;;;;;;14.10;50.50;;;;;;20909749;28;19908;-57
2024/04/01 13:49:56;;;;;;;;;;;14.30;51.00;;;;;;20921181;28;19947;-58
2024/04/01 14:00:02;;;;;;;;;;;14.40;49.20;;;;;;20925407;28;20388;-58
2024/04/01 14:10:09;;;;;;;;;;;14.50;48.20;;;;;;20924178;28;19928;-58
2024/04/01 14:20:17;;;;;;;;;;;14.60;48.00;;;;;;20924091;28;20370;-57
2024/04/01 14:30:19;;;;;;;;;;;14.30;47.90;;;;;;20923528;28;20258;-57
2024/04/01 14:40:20;;;;;;;;;;;13.90;49.80;;;;;;20921460;28;19945;-58
2024/04/01 14:50:21;;;;;;;;;;;14.20;48.50;;;;;;20919903;28;19921;-58
2024/04/01 15:00:23;;;;;;;;;;;14.30;49.60;;;;;;20919080;28;20012;-56
2024/04/01 15:10:25;;;;;;;;;;;14.30;49.50;;;;;;20917921;28;19917;-57
2024/04/01 15:20:27;;;;;;;;;;;14.20;49.10;;;;;;20917300;28;19995;-58
2024/04/01 15:30:29;;;;;;;;;;;14.40;48.80;;;;;;20916525;28;20004;-59
2024/04/01 15:40:31;;;;;;;;;;;14.20;51.10;;;;;;20916088;28;19909;-57
2024/04/01 15:50:32;;;;;;;;;;;14.40;50.60;;;;;;20914960;28;20352;-56
2024/04/01 16:00:33;;;;;;;;;;;14.30;50.50;;;;;;20914758;28;19924;-60
2024/04/01 16:10:35;;;;;;;;;;;14.30;53.90;;;;;;20913544;28;19917;-57
2024/04/01 16:20:40;;;;;;;;;;;14.40;54.90;;;;;;20913121;28;20322;-57
2024/04/01 16:30:44;;;;;;;;;;;14.20;54.70;;;;;;20911737;28;19956;-56
2024/04/01 16:40:48;;;;;;;;;;;14.00;54.20;;;;;;20912967;28;19988;-56
2024/04/01 16:50:50;;;;;;;;;;;13.90;53.40;;;;;;20908741;28;20402;-57
2024/04/01 17:00:52;;;;;;;;;;;13.70;51.50;;;;;;20908851;28;20063;-56
2024/04/01 17:10:56;;;;;;;;;;;13.50;53.60;;;;;;20901737;28;20003;-58
2024/04/01 17:21:00;;;;;;;;;;;14.10;54.10;;;;;;20917752;28;19915;-59
2024/04/01 17:31:02;;;;;;;;;;;13.60;51.70;;;;;;20925694;28;20001;-58
2024/04/01 17:41:04;;;;;;;;;;;13.50;53.60;;;;;;20924328;28;19912;-58
2024/04/01 17:51:06;;;;;;;;;;;13.30;53.70;;;;;;20844432;28;19932;-57
2024/04/01 18:01:07;;;;;;;;;;;13.30;56.40;;;;;;20841983;28;20273;-58
2024/04/01 18:11:11;;;;;;;;;;;13.40;57.50;;;;;;20839058;28;19925;-57
2024/04/01 18:21:12;;;;;;;;;;;13.40;57.00;;;;;;20839749;28;19909;-56
2024/04/01 18:31:17;;;;;;;;;;;13.40;56.40;;;;;;20838065;28;19951;-57
2024/04/01 18:41:18;;;;;;;;;;;13.10;57.70;;;;;;20837786;28;20044;-56
2024/04/01 18:51:20;;;;;;;;;;;13.10;58.40;;;;;;20918690;28;19964;-57
2024/04/01 19:01:21;;;;;;;;;;;12.90;58.60;;;;;;20921165;28;19912;-57
2024/04/01 19:11:25;;;;;;;;;;;12.70;59.10;;;;;;20919411;28;20008;-56
2024/04/01 19:21:26;;;;;;;;;;;12.70;59.00;;;;;;20917427;28;19909;-58
2024/04/01 19:31:27;;;;;;;;;;;12.50;59.70;;;;;;20917818;28;20289;-56
2024/04/01 19:41:28;;;;;;;;;;;12.30;59.80;;;;;;20915718;28;19909;-56
2024/04/01 19:51:30;;;;;;;;;;;12.20;60.50;;;;;;20835235;28;20350;-57
2024/04/01 20:01:34;;;;;;;;;;;12.20;61.50;;;;;;20832416;28;19941;-57
2024/04/01 20:11:36;;;;;;;;;;;12.10;61.30;;;;;;20831777;28;19917;-57
2024/04/01 20:21:38;;;;;;;;;;;11.90;62.60;;;;;;20831062;28;20351;-57
2024/04/01 20:31:39;;;;;;;;;;;11.80;63.20;;;;;;20830474;28;19917;-57
2024/04/01 20:41:41;;;;;;;;;;;11.80;63.60;;;;;;20828979;28;19987;-56
2024/04/01 20:51:42;;;;;;;;;;;11.70;64.50;;;;;;20836253;28;19930;-56
2024/04/01 21:01:44;;;;;;;;;;;11.60;65.40;;;;;;20856924;28;20377;-58
2024/04/01 21:11:45;;;;;;;;;;;11.50;67.00;;;;;;20855531;28;20012;-56
2024/04/01 21:21:47;;;;;;;;;;;11.60;67.00;;;;;;20857010;28;20012;-58
2024/04/01 21:31:48;;;;;;;;;;;11.40;67.80;;;;;;20855358;28;19989;-58
2024/04/01 21:41:49;;;;;;;;;;;11.30;68.40;;;;;;20855104;28;19995;-58
2024/04/01 21:51:50;;;;;;;;;;;11.20;69.10;;;;;;20855196;28;20424;-58
2024/04/01 22:01:51;;;;;;;;;;;11.20;68.90;;;;;;20851151;28;19913;-58
2024/04/01 22:11:52;;;;;;;;;;;11.20;69.00;;;;;;20841026;28;19964;-58
2024/04/01 22:21:53;;;;;;;;;;;11.20;69.30;;;;;;20841737;28;20381;-57
2024/04/01 22:31:54;;;;;;;;;;;11.00;69.90;;;;;;20839679;28;19921;-57
2024/04/01 22:41:55;;;;;;;;;;;11.00;70.00;;;;;;20842214;28;19921;-57
2024/04/01 22:51:56;;;;;;;;;;;10.90;69.80;;;;;;20920744;28;19921;-57
2024/04/01 23:01:58;;;;;;;;;;;10.80;69.60;;;;;;20920150;28;19940;-57
2024/04/01 23:11:59;;;;;;;;;;;10.80;69.70;;;;;;20919017;28;19916;-56
2024/04/01 23:22:00;;;;;;;;;;;10.70;69.60;;;;;;20917225;28;19909;-57
2024/04/01 23:32:01;;;;;;;;;;;10.70;70.00;;;;;;20917535;28;19917;-56
2024/04/01 23:42:02;;;;;;;;;;;10.70;69.40;;;;;;20916515;28;19945;-57
2024/04/01 23:52:08;;;;;;;;;;;10.70;69.30;;;;;;20917421;28;20385;-57
